Terminal Aerodrome Forecast
Issued by NWS Charleston, WV

Current Version | Previous Version | Graphics & Text | Print | Product List | Glossary On
Versions: 1 2 3 4 5 6 7 8 9 10 11 12 13 14 15 16 17 18 19 20 21 22 23 24 25 26 27 28 29
734
FTUS41 KRLX 060300 AAA
TAFEKN
TAF AMD
KEKN 060300Z 0603/0624 00000KT P6SM BKN150
     FM061100 13010KT 5SM -FZRA OVC060
     FM061400 12011KT 5SM -RA OVC045
     FM061700 14010KT 4SM -RA OVC019
     FM061900 15010KT 2SM -RA OVC010=

USA.gov is the U.S. government's official web portal to all federal, state and local government web resources and services.